Greenville, South Carolina
Current Conditions -  °F | °C
As of 2:53 AM on Saturday 20 Dec 2014 (Local Time) from KGMU Reporting Station
Light Rain Light Rain  
Wind Chill: 45°   Ceiling: 8000
Heat Index: 47°   Visibility: 10mi
Dew Point: 33°   Wind: 5mph
Humidity: 59%   Direction: 50°NE
Pressure: 30.17"   Gusts: NA
Location:  34.85°N, 82.4°W
Report Text: KGMU 200753Z AUTO 05004KT 10SM -RA OVC080 08/01 A3017 RMK AO2 RAB43 SLP215 P0000 T00830006
Loading
Personal Weather Stations






























Interactive Weather Map New forecast layout! Learn more

10-Day Weather Forecast

Advertisements
Track Severe Weather on mobile